Date,TemperatureHighF,TemperatureAvgF,TemperatureLowF,DewpointHighF,DewpointAvgF,DewpointLowF,HumidityHigh,HumidityAvg,HumidityLow,PressureMaxIn,PressureMinIn,WindSpeedMaxMPH,WindSpeedAvgMPH,GustSpeedMaxMPH,PrecipitationSumIn
2013-3-1,62.7,55.6,51.6,53.1,50.7,48.4,92,84,68,30.46,30.31,11,3,11,0.00
2013-3-2,54.7,50.7,44.3,50.4,47.1,37.8,95,88,75,30.32,30.18,12,2,13,0.02
2013-3-3,51.3,43.4,35.0,38.6,34.5,29.0,96,73,44,30.32,30.21,11,2,14,0.00
2013-3-4,56.8,43.0,31.9,39.8,35.6,30.2,95,77,48,30.22,29.91,8,1,8,0.00
2013-3-5,48.6,42.8,36.4,44.8,41.0,34.8,97,94,83,29.91,29.61,13,2,13,0.27
2013-3-6,48.6,43.4,40.7,44.9,41.1,38.6,97,92,80,29.98,29.55,16,4,18,0.28
2013-3-7,57.2,44.3,32.4,42.9,36.9,30.6,98,78,38,30.05,29.97,8,1,8,0.00
2013-3-8,58.1,44.9,34.2,42.5,38.0,32.9,96,79,48,30.20,30.02,8,1,9,0.00
2013-3-9,60.9,44.7,30.1,42.4,36.3,29.1,98,76,40,30.50,30.21,9,1,9,0.01
2013-3-10,55.4,45.8,34.2,46.6,40.1,32.4,95,82,65,30.50,30.40,9,1,9,0.00
2013-3-11,61.7,52.5,47.1,51.5,48.0,45.1,94,85,69,30.42,30.24,7,1,8,0.00
2013-3-12,61.6,52.1,43.4,51.8,47.5,42.3,98,85,67,30.25,30.15,10,1,11,0.01
2013-3-13,66.1,55.7,47.2,50.9,47.8,44.7,92,76,53,30.23,30.08,9,1,9,0.00
2013-3-14,58.7,53.2,47.4,50.2,46.5,41.2,92,79,54,30.22,30.05,15,3,18,0.00
2013-3-15,65.5,56.3,47.3,51.5,48.9,44.8,92,78,53,30.23,30.15,8,2,9,0.00
2013-3-16,50.9,47.7,40.9,46.9,43.9,37.0,94,87,78,30.20,30.04,16,4,17,0.12
2013-3-17,49.9,42.9,37.4,39.9,36.1,33.6,92,78,56,30.33,30.20,18,3,18,0.00
2013-3-18,56.2,44.1,31.6,39.1,34.4,30.3,96,72,44,30.31,30.12,9,1,11,0.00
2013-3-19,49.2,43.7,38.2,47.0,40.3,34.3,97,88,76,30.12,29.68,6,1,7,0.42
2013-3-20,53.0,48.3,39.1,50.9,43.9,34.6,97,85,66,30.21,29.57,24,8,26,0.38
2013-3-21,49.2,41.6,36.8,41.0,36.3,34.0,94,82,61,30.34,30.21,18,4,20,0.04
2013-3-22,47.4,40.4,33.3,38.2,34.7,31.9,95,81,56,30.40,30.32,14,2,14,0.02
2013-3-23,50.3,41.5,33.2,38.0,32.7,26.3,94,73,48,30.39,30.26,8,1,9,0.00
2013-3-24,56.2,45.6,37.3,40.0,36.4,31.6,92,71,51,30.26,30.07,8,1,8,0.00
2013-3-25,58.5,49.0,39.8,43.1,38.8,35.6,86,69,52,30.08,29.91,8,2,9,0.00
2013-3-26,55.0,49.6,45.5,48.1,44.9,40.6,95,85,72,30.02,29.96,6,1,7,0.04
2013-3-27,65.0,51.4,42.9,51.8,46.6,41.4,98,85,54,29.99,29.89,15,1,18,0.13
2013-3-28,67.1,54.3,47.5,53.1,49.4,46.1,100,85,48,30.13,29.99,10,1,13,0.03
2013-3-29,68.8,57.3,49.0,53.5,50.5,47.5,96,80,53,30.20,30.11,7,1,8,0.01
2013-3-30,75.4,60.2,46.9,53.6,49.6,44.6,93,71,43,30.16,29.92,10,2,11,0.00
2013-3-31,74.6,60.5,47.2,54.6,50.5,44.9,93,72,46,30.01,29.91,12,3,16,0.00